createdAt,value
2022-12-19T00:00:46.377Z,1.10
2022-12-19T00:03:14.599Z,1.25
2022-12-19T00:05:42.326Z,1.48
2022-12-19T00:08:17.911Z,1.37
2022-12-19T00:10:58.505Z,1.85
2022-12-19T00:13:27.298Z,1.93
2022-12-19T00:16:01.551Z,1.69
2022-12-19T00:18:29.332Z,1.66
2022-12-19T00:20:59.445Z,1.70
2022-12-19T00:23:29.749Z,1.60
2022-12-19T00:26:07.771Z,1.47
2022-12-19T00:28:35.411Z,1.74
2022-12-19T00:31:04.843Z,1.85
2022-12-19T00:33:32.750Z,2.06
2022-12-19T00:36:05.577Z,2.08
2022-12-19T00:38:34.183Z,1.82
2022-12-19T00:41:17.496Z,1.61
2022-12-19T00:43:45.337Z,1.91
2022-12-19T00:46:16.077Z,1.82
2022-12-19T00:48:43.758Z,1.77
2022-12-19T00:51:14.599Z,1.82
2022-12-19T00:53:48.349Z,1.81
2022-12-19T00:56:22.064Z,1.67
2022-12-19T00:58:49.802Z,1.68
2022-12-19T01:01:20.557Z,1.58
2022-12-19T01:04:25.969Z,1.58
2022-12-19T01:06:36.673Z,1.63
2022-12-19T01:09:09.180Z,1.72
2022-12-19T01:11:55.282Z,1.83
2022-12-19T01:14:23.442Z,1.79
2022-12-19T01:16:52.094Z,1.96
2022-12-19T01:19:20.595Z,2.08
2022-12-19T01:21:48.281Z,2.04
2022-12-19T01:24:19.125Z,2.13
2022-12-19T01:26:50.262Z,1.98
2022-12-19T01:29:17.886Z,1.85
2022-12-19T01:31:45.579Z,1.97
2022-12-19T01:34:13.849Z,1.84
2022-12-19T01:36:41.524Z,2.04
2022-12-19T01:39:09.235Z,2.27
2022-12-19T01:41:37.862Z,2.26
2022-12-19T01:44:07.893Z,2.22
2022-12-19T01:46:46.077Z,2.47
2022-12-19T01:49:28.168Z,2.28
2022-12-19T01:52:00.548Z,2.12
2022-12-19T01:54:36.236Z,1.89
2022-12-19T01:57:10.814Z,2.10
2022-12-19T01:59:44.024Z,2.21
2022-12-19T02:02:28.365Z,1.95
2022-12-19T02:04:56.077Z,2.17
2022-12-19T02:07:26.451Z,2.12
2022-12-19T02:09:57.728Z,2.06
2022-12-19T02:12:38.520Z,1.91
2022-12-19T02:15:09.241Z,1.81
2022-12-19T02:17:41.303Z,1.95
2022-12-19T02:20:12.873Z,2.17
2022-12-19T02:22:56.037Z,2.33
2022-12-19T02:25:48.270Z,2.19
2022-12-19T02:28:39.168Z,1.94
2022-12-19T02:31:31.651Z,2.09
2022-12-19T02:34:15.180Z,1.87
2022-12-19T02:36:53.305Z,1.95
2022-12-19T02:39:34.299Z,2.10
2022-12-19T02:42:06.723Z,2.15
2022-12-19T02:44:45.830Z,2.28
2022-12-19T02:47:14.592Z,2.23
2022-12-19T02:49:43.655Z,2.37
2022-12-19T02:52:20.269Z,2.51
2022-12-19T02:54:53.849Z,2.26
2022-12-19T02:57:51.859Z,2.40
2022-12-19T03:00:25.868Z,2.57
2022-12-19T03:03:11.605Z,2.59
2022-12-19T03:05:45.198Z,2.68
2022-12-19T03:08:26.754Z,2.72
2022-12-19T03:11:10.311Z,2.67
2022-12-19T03:14:01.000Z,2.71
2022-12-19T03:16:29.058Z,2.72
2022-12-19T03:18:58.045Z,2.74
2022-12-19T03:21:38.872Z,2.85
2022-12-19T03:24:08.411Z,2.62
2022-12-19T03:26:48.767Z,2.87
2022-12-19T03:29:33.016Z,2.99
2022-12-19T03:32:05.672Z,3.07
2022-12-19T03:34:40.386Z,3.08
2022-12-19T03:37:13.503Z,2.99
2022-12-19T03:39:43.778Z,3.30
2022-12-19T03:42:33.592Z,3.34
2022-12-19T03:45:04.974Z,3.07
2022-12-19T03:47:41.794Z,3.01
2022-12-19T03:50:10.141Z,3.05
2022-12-19T03:53:06.876Z,3.18
2022-12-19T03:55:53.729Z,3.23
2022-12-19T03:58:34.042Z,3.32
2022-12-19T04:01:03.820Z,3.18
2022-12-19T04:03:32.175Z,3.16
2022-12-19T04:06:02.355Z,3.22
2022-12-19T04:08:31.867Z,3.31
2022-12-19T04:11:07.217Z,3.31
2022-12-19T04:13:48.040Z,3.06
2022-12-19T04:16:24.519Z,3.17
2022-12-19T04:19:01.318Z,3.20
2022-12-19T04:21:35.844Z,3.50
2022-12-19T04:24:09.986Z,3.40
2022-12-19T04:26:44.160Z,3.35
2022-12-19T04:29:13.502Z,2.67
2022-12-19T04:31:41.821Z,3.14
2022-12-19T04:34:09.546Z,2.62
2022-12-19T04:36:37.265Z,2.87
2022-12-19T04:39:05.135Z,2.72
2022-12-19T04:41:32.734Z,3.17
2022-12-19T04:44:00.327Z,3.02
2022-12-19T04:46:28.167Z,2.74
2022-12-19T04:48:55.798Z,2.97
2022-12-19T04:51:23.512Z,2.87
2022-12-19T04:53:51.151Z,3.31
2022-12-19T04:56:18.908Z,3.40
2022-12-19T04:58:47.304Z,3.26
2022-12-19T05:01:14.965Z,3.50
2022-12-19T05:03:42.688Z,3.60
2022-12-19T05:06:13.651Z,3.49
2022-12-19T05:08:42.900Z,3.65
2022-12-19T05:11:19.015Z,3.53
2022-12-19T05:13:48.170Z,3.67
2022-12-19T05:16:17.773Z,3.69
2022-12-19T05:18:45.495Z,3.57
2022-12-19T05:21:13.418Z,3.45
2022-12-19T05:23:41.188Z,3.40
2022-12-19T05:26:09.049Z,3.16
2022-12-19T05:28:37.172Z,3.30
2022-12-19T05:31:07.705Z,3.14
2022-12-19T05:33:36.203Z,2.49
2022-12-19T05:36:05.009Z,2.73
2022-12-19T05:38:32.920Z,2.72
2022-12-19T05:41:00.768Z,3.00
2022-12-19T05:43:28.379Z,3.12
2022-12-19T05:45:56.114Z,3.07
2022-12-19T05:48:23.770Z,3.08
2022-12-19T05:50:51.478Z,3.06
2022-12-19T05:53:25.876Z,3.31
2022-12-19T05:56:09.098Z,3.07
2022-12-19T05:58:38.407Z,2.91
2022-12-19T06:01:17.541Z,2.66
2022-12-19T06:03:46.334Z,2.53
2022-12-19T06:06:19.513Z,2.61
2022-12-19T06:08:47.777Z,2.89
2022-12-19T06:11:16.780Z,3.03
2022-12-19T06:13:44.339Z,3.25
2022-12-19T06:16:14.550Z,3.44
2022-12-19T06:18:45.023Z,3.50
2022-12-19T06:21:18.355Z,3.21
2022-12-19T06:23:46.311Z,3.32
2022-12-19T06:26:19.592Z,3.62
2022-12-19T06:28:49.365Z,3.61
2022-12-19T06:31:18.091Z,3.50
2022-12-19T06:33:50.585Z,3.75
2022-12-19T06:36:26.259Z,3.40
2022-12-19T06:38:55.804Z,3.55
2022-12-19T06:41:43.564Z,3.66
2022-12-19T06:44:12.990Z,3.60
2022-12-19T06:46:41.390Z,3.78
2022-12-19T06:49:10.125Z,3.64
2022-12-19T06:51:42.120Z,3.67
2022-12-19T06:54:16.053Z,3.58
2022-12-19T06:56:45.115Z,3.38
2022-12-19T06:59:14.931Z,3.18
2022-12-19T07:02:00.927Z,2.92
2022-12-19T07:04:37.451Z,3.34
2022-12-19T07:07:05.444Z,3.79
2022-12-19T07:09:35.736Z,3.92
2022-12-19T07:12:19.792Z,4.01
2022-12-19T07:15:13.139Z,3.88
2022-12-19T07:17:50.692Z,3.84
2022-12-19T07:20:24.835Z,3.71
2022-12-19T07:23:29.473Z,3.79
2022-12-19T07:29:23.944Z,4.03
2022-12-19T07:31:56.203Z,4.12
2022-12-19T07:34:37.444Z,3.98
2022-12-19T07:37:08.453Z,4.03
2022-12-19T07:39:36.780Z,4.27
2022-12-19T07:42:13.672Z,4.52
2022-12-19T07:44:42.506Z,4.12
2022-12-19T07:47:11.319Z,3.54
2022-12-19T07:49:39.930Z,3.57
2022-12-19T07:52:08.967Z,3.89
2022-12-19T07:54:37.877Z,4.19
2022-12-19T07:57:05.820Z,4.35
2022-12-19T08:05:35.288Z,4.25
2022-12-19T08:08:02.677Z,4.22
2022-12-19T08:10:31.162Z,4.12
2022-12-19T08:12:59.773Z,4.52
2022-12-19T08:15:27.416Z,4.34
2022-12-19T08:17:55.022Z,4.40
2022-12-19T08:20:22.411Z,4.14
2022-12-19T08:22:49.896Z,4.03
2022-12-19T08:25:17.589Z,3.47
2022-12-19T08:27:45.100Z,3.91
2022-12-19T08:30:14.151Z,4.25
2022-12-19T08:32:41.721Z,4.17
2022-12-19T08:35:10.259Z,4.47
2022-12-19T08:37:39.578Z,4.37
2022-12-19T08:40:08.768Z,4.91
2022-12-19T08:42:37.238Z,4.76
2022-12-19T08:49:38.696Z,5.07
2022-12-19T08:52:06.221Z,4.73
2022-12-19T08:54:33.993Z,4.65
2022-12-19T09:06:18.716Z,5.01
2022-12-19T09:08:47.002Z,4.78
2022-12-19T09:11:16.924Z,5.00
2022-12-19T09:13:45.034Z,5.04
2022-12-19T09:16:13.787Z,4.48
2022-12-19T09:28:26.419Z,4.82
2022-12-19T09:30:40.046Z,4.53
2022-12-19T09:33:07.512Z,4.46
2022-12-19T09:35:36.857Z,4.52
2022-12-19T09:38:04.773Z,4.67
2022-12-19T09:49:46.928Z,5.18
2022-12-19T09:52:19.460Z,5.29
2022-12-19T09:55:17.178Z,4.89
2022-12-19T09:57:50.701Z,4.93
2022-12-19T10:00:21.306Z,4.93
2022-12-19T10:17:22.988Z,5.50
2022-12-19T10:19:58.968Z,5.70
2022-12-19T10:23:00.095Z,5.18
2022-12-19T10:25:47.602Z,5.10
2022-12-19T10:32:54.347Z,5.22
2022-12-19T10:35:23.769Z,5.02
2022-12-19T10:38:00.044Z,5.25
2022-12-19T10:49:31.218Z,5.87
2022-12-19T10:52:08.100Z,6.03
2022-12-19T10:54:38.601Z,5.83
2022-12-19T10:57:25.536Z,5.66
2022-12-19T10:59:59.904Z,5.82
2022-12-19T11:15:30.854Z,6.38
2022-12-19T11:17:55.010Z,6.30
2022-12-19T11:29:39.899Z,5.77
2022-12-19T11:30:58.917Z,6.18
2022-12-19T11:32:40.675Z,6.03
2022-12-19T11:49:02.131Z,6.42
2022-12-19T12:01:05.779Z,6.82
2022-12-19T12:04:10.646Z,6.96
2022-12-19T12:19:21.847Z,7.13
2022-12-19T12:25:06.097Z,7.14
2022-12-19T12:31:45.125Z,7.26
2022-12-19T12:31:50.994Z,6.71
2022-12-19T12:35:50.039Z,7.45
2022-12-19T12:44:11.043Z,7.29
2022-12-19T12:46:43.995Z,7.31
2022-12-19T12:49:48.541Z,7.65
2022-12-19T12:52:22.099Z,6.98
2022-12-19T12:54:51.154Z,7.22
2022-12-19T12:57:33.871Z,7.32
2022-12-19T13:00:32.926Z,6.83
2022-12-19T13:03:03.971Z,6.56
2022-12-19T13:05:46.485Z,6.69
2022-12-19T13:08:34.457Z,6.85
2022-12-19T13:11:33.875Z,6.91
2022-12-19T13:14:01.415Z,7.05
2022-12-19T13:16:44.190Z,7.40
2022-12-19T13:19:25.778Z,7.13
2022-12-19T13:22:05.013Z,7.05
2022-12-19T13:24:56.092Z,7.14
2022-12-19T13:27:23.935Z,7.26
2022-12-19T13:30:00.296Z,6.83
2022-12-19T13:32:39.079Z,6.98
2022-12-19T13:36:37.319Z,6.92
2022-12-19T13:39:55.430Z,7.08
2022-12-19T13:43:13.582Z,6.54
2022-12-19T13:54:59.542Z,6.85
2022-12-19T13:57:30.291Z,6.81
2022-12-19T14:00:03.542Z,6.66
2022-12-19T14:06:16.636Z,6.99
2022-12-19T14:08:28.975Z,6.95
2022-12-19T14:14:39.938Z,6.93
2022-12-19T14:17:22.383Z,6.56
2022-12-19T14:22:02.784Z,6.54
2022-12-19T14:23:42.859Z,6.52
2022-12-19T14:28:19.052Z,6.55
2022-12-19T14:33:46.230Z,6.55
2022-12-19T14:36:43.500Z,6.42
2022-12-19T14:44:00.434Z,6.80
2022-12-19T15:07:06.767Z,6.43
2022-12-19T15:14:56.112Z,5.84
2022-12-19T15:20:27.293Z,6.12
2022-12-19T15:24:12.403Z,6.11
2022-12-19T15:27:45.816Z,5.89
2022-12-19T15:30:51.992Z,6.08
2022-12-19T15:41:16.742Z,6.42
2022-12-19T15:44:04.047Z,6.44
2022-12-19T15:47:01.222Z,6.24
2022-12-19T15:50:42.754Z,6.38
2022-12-19T15:53:49.271Z,6.26
2022-12-19T15:56:28.053Z,6.22
2022-12-19T15:58:58.817Z,6.21
2022-12-19T16:01:26.830Z,6.15
2022-12-19T16:03:56.926Z,5.52
2022-12-19T16:06:24.623Z,5.28
2022-12-19T16:08:52.248Z,5.66
2022-12-19T16:11:24.561Z,5.46
2022-12-19T16:13:55.726Z,5.50
2022-12-19T16:16:23.405Z,5.51
2022-12-19T16:18:51.056Z,5.64
2022-12-19T16:21:31.594Z,5.69
2022-12-19T16:24:01.657Z,5.71
2022-12-19T16:26:34.688Z,5.69
2022-12-19T16:29:02.919Z,5.96
2022-12-19T16:31:30.873Z,5.81
2022-12-19T16:33:58.451Z,6.25
2022-12-19T16:36:25.911Z,6.25
2022-12-19T16:38:53.493Z,6.19
2022-12-19T16:41:25.252Z,6.04
2022-12-19T16:43:52.904Z,6.09
2022-12-19T16:46:23.579Z,5.97
2022-12-19T16:48:51.141Z,6.18
2022-12-19T16:51:27.634Z,6.20
2022-12-19T16:53:58.940Z,6.23
2022-12-19T16:56:40.726Z,6.21
2022-12-19T16:59:38.242Z,6.22
2022-12-19T17:02:38.218Z,6.04
2022-12-19T17:05:07.918Z,5.95
2022-12-19T17:07:35.594Z,5.86
2022-12-19T17:10:03.185Z,5.88
2022-12-19T17:12:30.750Z,5.75
2022-12-19T17:15:01.681Z,5.68
2022-12-19T17:17:29.147Z,5.64
2022-12-19T17:19:56.585Z,5.69
2022-12-19T17:22:24.043Z,5.59
2022-12-19T17:24:51.657Z,5.52
2022-12-19T17:27:21.053Z,5.60
2022-12-19T17:29:48.527Z,5.62
2022-12-19T17:32:23.601Z,5.45
2022-12-19T17:34:52.799Z,5.44
2022-12-19T17:37:20.516Z,5.53
2022-12-19T17:39:48.656Z,5.53
2022-12-19T17:42:24.117Z,5.50
2022-12-19T17:44:52.049Z,5.64
2022-12-19T17:47:21.187Z,5.64
2022-12-19T17:49:49.380Z,5.63
2022-12-19T17:52:19.755Z,5.68
2022-12-19T17:54:47.547Z,5.80
2022-12-19T17:57:16.253Z,5.63
2022-12-19T17:59:46.339Z,5.75
2022-12-19T18:02:24.787Z,5.74
2022-12-19T18:04:52.804Z,5.74
2022-12-19T18:07:20.287Z,5.77
2022-12-19T18:09:47.746Z,5.85
2022-12-19T18:12:15.379Z,5.96
2022-12-19T18:14:42.846Z,5.61
2022-12-19T18:17:12.950Z,5.72
2022-12-19T18:19:40.545Z,5.71
2022-12-19T18:22:14.577Z,5.77
2022-12-19T18:24:42.408Z,5.96
2022-12-19T18:27:10.359Z,5.93
2022-12-19T18:29:37.867Z,5.91
2022-12-19T18:32:05.411Z,5.95
2022-12-19T18:34:34.448Z,5.78
2022-12-19T18:37:02.855Z,5.79
2022-12-19T18:39:32.072Z,5.76
2022-12-19T18:41:59.659Z,5.68
2022-12-19T18:44:27.097Z,5.62
2022-12-19T18:46:54.602Z,5.61
2022-12-19T18:49:23.053Z,5.64
2022-12-19T18:51:50.552Z,5.72
2022-12-19T18:54:21.845Z,5.81
2022-12-19T18:56:49.390Z,5.59
2022-12-19T18:59:16.965Z,5.46
2022-12-19T19:01:46.958Z,5.60
2022-12-19T19:04:18.371Z,5.67
2022-12-19T19:06:51.785Z,5.54
2022-12-19T19:09:21.008Z,5.66
2022-12-19T19:12:27.105Z,5.73
2022-12-19T19:14:54.461Z,5.68
2022-12-19T19:17:28.235Z,5.75
2022-12-19T19:19:55.848Z,5.70
2022-12-19T19:22:24.820Z,5.47
2022-12-19T19:24:52.347Z,5.34
2022-12-19T19:27:19.842Z,5.41
2022-12-19T19:29:47.263Z,5.56
2022-12-19T19:32:14.745Z,5.36
2022-12-19T19:34:42.987Z,5.36
2022-12-19T19:37:13.736Z,5.36
2022-12-19T19:39:41.967Z,5.27
2022-12-19T19:42:09.689Z,5.41
2022-12-19T19:44:37.182Z,5.80
2022-12-19T19:47:04.751Z,5.80
2022-12-19T19:49:50.457Z,5.87
2022-12-19T19:52:17.928Z,5.89
2022-12-19T19:54:45.752Z,5.98
2022-12-19T19:57:13.334Z,5.79
2022-12-19T19:59:40.807Z,5.96
2022-12-19T20:02:11.479Z,6.00
2022-12-19T20:04:39.560Z,5.90
2022-12-19T20:07:07.977Z,5.76
2022-12-19T20:09:35.437Z,5.50
2022-12-19T20:12:03.095Z,5.36
2022-12-19T20:14:30.643Z,5.47
2022-12-19T20:16:59.386Z,5.64
2022-12-19T20:19:28.002Z,5.60
2022-12-19T20:21:56.892Z,5.47
2022-12-19T20:24:25.003Z,5.59
2022-12-19T20:26:52.941Z,5.63
2022-12-19T20:29:20.965Z,5.50
2022-12-19T20:31:50.264Z,5.54
2022-12-19T20:34:20.243Z,5.55
2022-12-19T20:36:49.628Z,5.55
2022-12-19T20:39:22.160Z,5.01
2022-12-19T20:41:52.840Z,5.33
2022-12-19T20:44:24.473Z,5.38
2022-12-19T20:46:54.075Z,5.32
2022-12-19T20:49:23.561Z,5.47
2022-12-19T20:51:51.189Z,5.66
2022-12-19T20:54:21.707Z,5.48
2022-12-19T20:56:49.372Z,5.56
2022-12-19T20:59:17.198Z,5.43
2022-12-19T21:01:46.587Z,5.51
2022-12-19T21:04:15.707Z,5.63
2022-12-19T21:06:43.824Z,5.66
2022-12-19T21:09:12.529Z,5.57
2022-12-19T21:11:43.519Z,5.87
2022-12-19T21:14:12.757Z,5.82
2022-12-19T21:16:41.044Z,6.13
2022-12-19T21:19:10.293Z,5.97
2022-12-19T21:22:06.543Z,5.98
2022-12-19T21:24:35.354Z,5.83
2022-12-19T21:27:03.221Z,5.83
2022-12-19T21:29:31.123Z,5.81
2022-12-19T21:31:58.786Z,5.54
2022-12-19T21:34:26.594Z,5.67
2022-12-19T21:36:54.296Z,5.67
2022-12-19T21:39:25.514Z,5.80
2022-12-19T21:41:53.004Z,5.78
2022-12-19T21:44:20.745Z,5.83
2022-12-19T21:46:48.394Z,5.83
2022-12-19T21:49:16.120Z,5.84
2022-12-19T21:51:43.796Z,5.43
2022-12-19T21:54:11.654Z,5.45
2022-12-19T21:56:40.822Z,5.67
2022-12-19T21:59:16.625Z,5.88
2022-12-19T22:01:45.347Z,5.81
2022-12-19T22:04:22.943Z,5.79
2022-12-19T22:06:51.938Z,5.31
2022-12-19T22:09:22.738Z,5.68
2022-12-19T22:11:53.549Z,5.90
2022-12-19T22:14:29.116Z,5.80
2022-12-19T22:16:59.834Z,5.80
2022-12-19T22:19:27.699Z,5.80
2022-12-19T22:21:56.361Z,5.66
2022-12-19T22:24:24.981Z,5.62
2022-12-19T22:26:53.061Z,5.74
2022-12-19T22:29:31.896Z,5.81
2022-12-19T22:36:04.783Z,5.78
2022-12-19T22:38:49.353Z,5.71
2022-12-19T22:41:19.477Z,5.81
2022-12-19T22:44:17.089Z,5.66
2022-12-19T22:46:54.162Z,5.59
2022-12-19T22:49:33.203Z,5.63
2022-12-19T22:52:01.126Z,5.62
2022-12-19T22:54:29.951Z,5.72
2022-12-19T22:57:02.733Z,5.81
2022-12-19T22:59:30.575Z,5.86
2022-12-19T23:02:01.484Z,5.64
2022-12-19T23:04:29.331Z,5.74
2022-12-19T23:06:57.010Z,5.85
2022-12-19T23:09:38.083Z,5.69
2022-12-19T23:12:07.294Z,5.71
2022-12-19T23:14:40.422Z,5.74
2022-12-19T23:17:08.176Z,5.80
2022-12-19T23:19:35.865Z,5.89
2022-12-19T23:23:09.227Z,5.96
2022-12-19T23:27:10.238Z,5.99
2022-12-19T23:30:14.964Z,5.86
2022-12-19T23:37:20.227Z,5.97
2022-12-19T23:41:15.322Z,5.93
2022-12-19T23:44:40.411Z,5.96
2022-12-19T23:47:11.049Z,5.86
2022-12-19T23:49:38.796Z,5.77
2022-12-19T23:58:00.999Z,5.81
